sensor_id;sensor_type;location;lat;lon;timestamp;temperature;humidity
52275;DHT22;38228;50.940;4.024;2023-03-23T00:02:23;13.20;99.90
52275;DHT22;38228;50.940;4.024;2023-03-23T00:04:49;13.20;99.90
52275;DHT22;38228;50.940;4.024;2023-03-23T00:07:16;13.20;99.90
52275;DHT22;38228;50.940;4.024;2023-03-23T00:09:49;13.10;99.90
52275;DHT22;38228;50.940;4.024;2023-03-23T00:12:24;13.20;99.90
52275;DHT22;38228;50.940;4.024;2023-03-23T00:15:00;13.10;99.90
52275;DHT22;38228;50.940;4.024;2023-03-23T00:17:29;13.20;99.90
52275;DHT22;38228;50.940;4.024;2023-03-23T00:19:55;13.10;99.90
52275;DHT22;38228;50.940;4.024;2023-03-23T00:22:21;13.00;99.90
52275;DHT22;38228;50.940;4.024;2023-03-23T00:24:47;13.00;99.90
52275;DHT22;38228;50.940;4.024;2023-03-23T00:27:13;13.10;99.90
52275;DHT22;38228;50.940;4.024;2023-03-23T00:29:40;13.10;99.90
52275;DHT22;38228;50.940;4.024;2023-03-23T00:32:06;13.10;99.90
52275;DHT22;38228;50.940;4.024;2023-03-23T00:34:31;13.20;99.90
52275;DHT22;38228;50.940;4.024;2023-03-23T00:36:58;13.20;99.90
52275;DHT22;38228;50.940;4.024;2023-03-23T00:39:24;13.20;99.90
52275;DHT22;38228;50.940;4.024;2023-03-23T00:41:50;13.10;99.90
52275;DHT22;38228;50.940;4.024;2023-03-23T00:44:16;13.00;99.90
52275;DHT22;38228;50.940;4.024;2023-03-23T00:46:45;13.00;99.90
52275;DHT22;38228;50.940;4.024;2023-03-23T00:49:12;12.90;99.90
52275;DHT22;38228;50.940;4.024;2023-03-23T00:51:38;13.00;99.90
52275;DHT22;38228;50.940;4.024;2023-03-23T00:54:04;13.00;99.90
52275;DHT22;38228;50.940;4.024;2023-03-23T00:56:29;13.00;99.90
52275;DHT22;38228;50.940;4.024;2023-03-23T00:58:55;13.10;99.90
52275;DHT22;38228;50.940;4.024;2023-03-23T01:01:20;13.10;99.90
52275;DHT22;38228;50.940;4.024;2023-03-23T01:03:46;13.00;99.90
52275;DHT22;38228;50.940;4.024;2023-03-23T01:06:11;13.10;99.90
52275;DHT22;38228;50.940;4.024;2023-03-23T01:08:38;13.10;99.90
52275;DHT22;38228;50.940;4.024;2023-03-23T01:11:11;13.10;99.90
52275;DHT22;38228;50.940;4.024;2023-03-23T01:13:37;13.10;99.90
52275;DHT22;38228;50.940;4.024;2023-03-23T01:16:03;13.10;99.90
52275;DHT22;38228;50.940;4.024;2023-03-23T01:18:28;13.00;99.90
52275;DHT22;38228;50.940;4.024;2023-03-23T01:20:54;13.00;99.90
52275;DHT22;38228;50.940;4.024;2023-03-23T01:23:20;13.10;99.90
52275;DHT22;38228;50.940;4.024;2023-03-23T01:25:45;13.10;99.90
52275;DHT22;38228;50.940;4.024;2023-03-23T01:28:11;13.10;99.90
52275;DHT22;38228;50.940;4.024;2023-03-23T01:30:37;13.00;99.90
52275;DHT22;38228;50.940;4.024;2023-03-23T01:33:02;13.10;99.90
52275;DHT22;38228;50.940;4.024;2023-03-23T01:35:28;13.00;99.90
52275;DHT22;38228;50.940;4.024;2023-03-23T01:37:53;13.00;99.90
52275;DHT22;38228;50.940;4.024;2023-03-23T01:40:19;12.90;99.90
52275;DHT22;38228;50.940;4.024;2023-03-23T01:42:45;13.00;99.90
52275;DHT22;38228;50.940;4.024;2023-03-23T01:47:49;13.00;99.90
52275;DHT22;38228;50.940;4.024;2023-03-23T01:50:18;13.10;99.90
52275;DHT22;38228;50.940;4.024;2023-03-23T01:52:45;12.90;99.90
52275;DHT22;38228;50.940;4.024;2023-03-23T01:55:11;12.90;99.90
52275;DHT22;38228;50.940;4.024;2023-03-23T01:57:37;12.90;99.90
52275;DHT22;38228;50.940;4.024;2023-03-23T02:00:04;13.00;99.90
52275;DHT22;38228;50.940;4.024;2023-03-23T02:02:37;12.90;99.90
52275;DHT22;38228;50.940;4.024;2023-03-23T02:05:06;13.00;99.90
52275;DHT22;38228;50.940;4.024;2023-03-23T02:07:33;12.80;99.90
52275;DHT22;38228;50.940;4.024;2023-03-23T02:09:59;12.80;99.90
52275;DHT22;38228;50.940;4.024;2023-03-23T02:12:25;12.90;99.90
52275;DHT22;38228;50.940;4.024;2023-03-23T02:14:51;13.00;99.90
52275;DHT22;38228;50.940;4.024;2023-03-23T02:20:13;13.00;99.90
52275;DHT22;38228;50.940;4.024;2023-03-23T02:23:00;12.90;99.90
52275;DHT22;38228;50.940;4.024;2023-03-23T02:31:01;12.80;99.90
52275;DHT22;38228;50.940;4.024;2023-03-23T02:36:00;12.90;99.90
52275;DHT22;38228;50.940;4.024;2023-03-23T02:38:31;13.00;99.90
52275;DHT22;38228;50.940;4.024;2023-03-23T02:40:59;13.00;99.90
52275;DHT22;38228;50.940;4.024;2023-03-23T02:43:27;12.80;99.90
52275;DHT22;38228;50.940;4.024;2023-03-23T02:45:54;12.80;99.90
52275;DHT22;38228;50.940;4.024;2023-03-23T02:48:22;12.80;99.90
52275;DHT22;38228;50.940;4.024;2023-03-23T02:50:49;12.80;99.90
52275;DHT22;38228;50.940;4.024;2023-03-23T02:53:17;12.80;99.90
52275;DHT22;38228;50.940;4.024;2023-03-23T02:55:44;12.90;99.90
52275;DHT22;38228;50.940;4.024;2023-03-23T02:58:10;12.80;99.90
52275;DHT22;38228;50.940;4.024;2023-03-23T03:00:36;12.90;99.90
52275;DHT22;38228;50.940;4.024;2023-03-23T03:03:02;12.90;99.90
52275;DHT22;38228;50.940;4.024;2023-03-23T03:05:40;12.80;99.90
52275;DHT22;38228;50.940;4.024;2023-03-23T03:13:03;12.90;99.90
52275;DHT22;38228;50.940;4.024;2023-03-23T03:15:33;12.90;99.90
52275;DHT22;38228;50.940;4.024;2023-03-23T03:18:09;12.90;99.90
52275;DHT22;38228;50.940;4.024;2023-03-23T03:20:38;12.90;99.90
52275;DHT22;38228;50.940;4.024;2023-03-23T03:23:06;13.00;99.90
52275;DHT22;38228;50.940;4.024;2023-03-23T03:25:34;12.90;99.90
52275;DHT22;38228;50.940;4.024;2023-03-23T03:28:00;12.90;99.90
52275;DHT22;38228;50.940;4.024;2023-03-23T03:30:28;12.80;99.90
52275;DHT22;38228;50.940;4.024;2023-03-23T03:32:55;12.80;99.90
52275;DHT22;38228;50.940;4.024;2023-03-23T03:35:22;12.90;99.90
52275;DHT22;38228;50.940;4.024;2023-03-23T03:37:48;12.80;99.90
52275;DHT22;38228;50.940;4.024;2023-03-23T03:40:16;12.90;99.90
52275;DHT22;38228;50.940;4.024;2023-03-23T03:42:42;12.80;99.90
52275;DHT22;38228;50.940;4.024;2023-03-23T03:45:08;12.70;99.90
52275;DHT22;38228;50.940;4.024;2023-03-23T03:47:34;12.70;99.90
52275;DHT22;38228;50.940;4.024;2023-03-23T03:50:00;12.80;99.90
52275;DHT22;38228;50.940;4.024;2023-03-23T03:52:25;12.80;99.90
52275;DHT22;38228;50.940;4.024;2023-03-23T03:54:52;12.80;99.90
52275;DHT22;38228;50.940;4.024;2023-03-23T03:57:18;12.90;99.90
52275;DHT22;38228;50.940;4.024;2023-03-23T03:59:44;12.80;99.90
52275;DHT22;38228;50.940;4.024;2023-03-23T04:02:11;12.70;99.90
52275;DHT22;38228;50.940;4.024;2023-03-23T04:04:40;12.70;99.90
52275;DHT22;38228;50.940;4.024;2023-03-23T04:07:06;12.70;99.90
52275;DHT22;38228;50.940;4.024;2023-03-23T04:09:32;12.70;99.90
52275;DHT22;38228;50.940;4.024;2023-03-23T04:11:58;12.80;99.90
52275;DHT22;38228;50.940;4.024;2023-03-23T04:14:23;12.90;99.90
52275;DHT22;38228;50.940;4.024;2023-03-23T04:16:49;12.90;99.90
52275;DHT22;38228;50.940;4.024;2023-03-23T04:19:17;12.90;99.90
52275;DHT22;38228;50.940;4.024;2023-03-23T04:21:43;12.90;99.90
52275;DHT22;38228;50.940;4.024;2023-03-23T04:24:10;12.80;99.90
52275;DHT22;38228;50.940;4.024;2023-03-23T04:26:36;12.70;99.90
52275;DHT22;38228;50.940;4.024;2023-03-23T04:29:05;12.70;99.90
52275;DHT22;38228;50.940;4.024;2023-03-23T04:31:31;12.60;99.90
52275;DHT22;38228;50.940;4.024;2023-03-23T04:33:57;12.70;99.90
52275;DHT22;38228;50.940;4.024;2023-03-23T04:36:23;12.60;99.90
52275;DHT22;38228;50.940;4.024;2023-03-23T04:38:48;12.60;99.90
52275;DHT22;38228;50.940;4.024;2023-03-23T04:41:16;12.70;99.90
52275;DHT22;38228;50.940;4.024;2023-03-23T04:43:41;12.60;99.90
52275;DHT22;38228;50.940;4.024;2023-03-23T04:46:07;12.50;99.90
52275;DHT22;38228;50.940;4.024;2023-03-23T04:48:34;12.60;99.90
52275;DHT22;38228;50.940;4.024;2023-03-23T04:51:03;12.50;99.90
52275;DHT22;38228;50.940;4.024;2023-03-23T04:53:30;12.40;99.90
52275;DHT22;38228;50.940;4.024;2023-03-23T04:55:55;12.50;99.90
52275;DHT22;38228;50.940;4.024;2023-03-23T04:58:21;12.50;99.90
52275;DHT22;38228;50.940;4.024;2023-03-23T05:00:48;12.50;99.90
52275;DHT22;38228;50.940;4.024;2023-03-23T05:03:15;12.60;99.90
52275;DHT22;38228;50.940;4.024;2023-03-23T05:05:41;12.70;99.90
52275;DHT22;38228;50.940;4.024;2023-03-23T05:08:07;12.60;99.90
52275;DHT22;38228;50.940;4.024;2023-03-23T05:10:33;12.60;99.90
52275;DHT22;38228;50.940;4.024;2023-03-23T05:12:58;12.70;99.90
52275;DHT22;38228;50.940;4.024;2023-03-23T05:15:24;12.70;99.90
52275;DHT22;38228;50.940;4.024;2023-03-23T05:17:53;12.70;99.90
52275;DHT22;38228;50.940;4.024;2023-03-23T05:20:18;12.60;99.90
52275;DHT22;38228;50.940;4.024;2023-03-23T05:22:45;12.60;99.90
52275;DHT22;38228;50.940;4.024;2023-03-23T05:25:13;12.60;99.90
52275;DHT22;38228;50.940;4.024;2023-03-23T05:27:39;12.60;99.90
52275;DHT22;38228;50.940;4.024;2023-03-23T05:30:08;12.60;99.90
52275;DHT22;38228;50.940;4.024;2023-03-23T05:32:34;12.60;99.90
52275;DHT22;38228;50.940;4.024;2023-03-23T05:35:00;12.70;99.90
52275;DHT22;38228;50.940;4.024;2023-03-23T05:37:27;12.70;99.90
52275;DHT22;38228;50.940;4.024;2023-03-23T05:39:54;12.60;99.90
52275;DHT22;38228;50.940;4.024;2023-03-23T05:42:21;12.50;99.90
52275;DHT22;38228;50.940;4.024;2023-03-23T05:44:48;12.60;99.90
52275;DHT22;38228;50.940;4.024;2023-03-23T05:47:13;12.70;99.90
52275;DHT22;38228;50.940;4.024;2023-03-23T05:49:39;12.60;99.90
52275;DHT22;38228;50.940;4.024;2023-03-23T05:52:04;12.60;99.90
52275;DHT22;38228;50.940;4.024;2023-03-23T05:54:30;12.70;99.90
52275;DHT22;38228;50.940;4.024;2023-03-23T05:56:55;12.70;99.90
52275;DHT22;38228;50.940;4.024;2023-03-23T05:59:21;12.60;99.90
52275;DHT22;38228;50.940;4.024;2023-03-23T06:01:47;12.60;99.90
52275;DHT22;38228;50.940;4.024;2023-03-23T06:04:12;12.70;99.90
52275;DHT22;38228;50.940;4.024;2023-03-23T06:06:38;12.70;99.90
52275;DHT22;38228;50.940;4.024;2023-03-23T06:09:04;12.50;99.90
52275;DHT22;38228;50.940;4.024;2023-03-23T06:11:29;12.00;99.90
52275;DHT22;38228;50.940;4.024;2023-03-23T06:13:55;11.70;99.90
52275;DHT22;38228;50.940;4.024;2023-03-23T06:16:21;11.40;99.90
52275;DHT22;38228;50.940;4.024;2023-03-23T06:18:46;11.30;99.90
52275;DHT22;38228;50.940;4.024;2023-03-23T06:21:13;11.10;99.90
52275;DHT22;38228;50.940;4.024;2023-03-23T06:23:39;11.00;99.90
52275;DHT22;38228;50.940;4.024;2023-03-23T06:26:06;10.80;99.90
52275;DHT22;38228;50.940;4.024;2023-03-23T06:28:32;10.80;99.90
52275;DHT22;38228;50.940;4.024;2023-03-23T06:30:59;10.70;99.90
52275;DHT22;38228;50.940;4.024;2023-03-23T06:33:25;10.70;99.90
52275;DHT22;38228;50.940;4.024;2023-03-23T06:35:51;10.70;99.90
52275;DHT22;38228;50.940;4.024;2023-03-23T06:38:16;10.70;99.90
52275;DHT22;38228;50.940;4.024;2023-03-23T06:40:42;10.80;99.90
52275;DHT22;38228;50.940;4.024;2023-03-23T06:43:12;10.70;99.90
52275;DHT22;38228;50.940;4.024;2023-03-23T06:45:38;10.50;99.90
52275;DHT22;38228;50.940;4.024;2023-03-23T06:48:03;10.40;99.90
52275;DHT22;38228;50.940;4.024;2023-03-23T06:50:29;10.50;99.90
52275;DHT22;38228;50.940;4.024;2023-03-23T06:52:54;10.40;99.90
52275;DHT22;38228;50.940;4.024;2023-03-23T06:55:20;10.40;99.90
52275;DHT22;38228;50.940;4.024;2023-03-23T06:57:46;10.50;99.90
52275;DHT22;38228;50.940;4.024;2023-03-23T07:00:12;10.50;99.90
52275;DHT22;38228;50.940;4.024;2023-03-23T07:02:41;10.50;99.90
52275;DHT22;38228;50.940;4.024;2023-03-23T07:05:08;10.60;99.90
52275;DHT22;38228;50.940;4.024;2023-03-23T07:07:34;10.70;99.90
52275;DHT22;38228;50.940;4.024;2023-03-23T07:10:00;10.80;99.90
52275;DHT22;38228;50.940;4.024;2023-03-23T07:12:26;10.80;99.90
52275;DHT22;38228;50.940;4.024;2023-03-23T07:14:57;10.90;99.90
52275;DHT22;38228;50.940;4.024;2023-03-23T07:17:23;11.00;99.90
52275;DHT22;38228;50.940;4.024;2023-03-23T07:19:48;11.00;99.90
52275;DHT22;38228;50.940;4.024;2023-03-23T07:22:14;10.80;99.90
52275;DHT22;38228;50.940;4.024;2023-03-23T07:24:39;10.90;99.90
52275;DHT22;38228;50.940;4.024;2023-03-23T07:27:05;11.00;99.90
52275;DHT22;38228;50.940;4.024;2023-03-23T07:29:30;10.90;99.90
52275;DHT22;38228;50.940;4.024;2023-03-23T07:32:00;10.90;99.90
52275;DHT22;38228;50.940;4.024;2023-03-23T07:34:25;11.00;99.90
52275;DHT22;38228;50.940;4.024;2023-03-23T07:36:51;11.10;99.90
52275;DHT22;38228;50.940;4.024;2023-03-23T07:39:17;11.10;99.90
52275;DHT22;38228;50.940;4.024;2023-03-23T07:41:42;11.20;99.90
52275;DHT22;38228;50.940;4.024;2023-03-23T07:44:08;11.20;99.90
52275;DHT22;38228;50.940;4.024;2023-03-23T07:46:33;11.20;99.90
52275;DHT22;38228;50.940;4.024;2023-03-23T07:48:59;11.20;99.90
52275;DHT22;38228;50.940;4.024;2023-03-23T07:51:25;11.20;99.90
52275;DHT22;38228;50.940;4.024;2023-03-23T07:53:51;11.20;99.90
52275;DHT22;38228;50.940;4.024;2023-03-23T07:56:16;11.50;99.90
52275;DHT22;38228;50.940;4.024;2023-03-23T07:58:47;11.60;99.90
52275;DHT22;38228;50.940;4.024;2023-03-23T08:01:13;11.80;99.90
52275;DHT22;38228;50.940;4.024;2023-03-23T08:03:39;11.50;99.90
52275;DHT22;38228;50.940;4.024;2023-03-23T08:06:05;11.50;99.90
52275;DHT22;38228;50.940;4.024;2023-03-23T08:08:31;11.50;99.90
52275;DHT22;38228;50.940;4.024;2023-03-23T08:10:57;11.40;99.90
52275;DHT22;38228;50.940;4.024;2023-03-23T08:13:22;11.50;99.90
52275;DHT22;38228;50.940;4.024;2023-03-23T08:15:48;11.60;99.90
52275;DHT22;38228;50.940;4.024;2023-03-23T08:18:15;11.70;99.90
52275;DHT22;38228;50.940;4.024;2023-03-23T08:20:41;11.90;99.90
52275;DHT22;38228;50.940;4.024;2023-03-23T08:23:16;11.60;99.90
52275;DHT22;38228;50.940;4.024;2023-03-23T08:25:42;11.50;99.90
52275;DHT22;38228;50.940;4.024;2023-03-23T08:28:08;11.60;99.90
52275;DHT22;38228;50.940;4.024;2023-03-23T08:30:34;11.60;99.90
52275;DHT22;38228;50.940;4.024;2023-03-23T08:33:01;11.60;99.90
52275;DHT22;38228;50.940;4.024;2023-03-23T08:35:27;11.70;99.90
52275;DHT22;38228;50.940;4.024;2023-03-23T08:37:53;11.80;99.90
52275;DHT22;38228;50.940;4.024;2023-03-23T08:40:20;11.90;99.90
52275;DHT22;38228;50.940;4.024;2023-03-23T08:42:47;12.10;99.90
52275;DHT22;38228;50.940;4.024;2023-03-23T08:45:15;12.30;99.90
52275;DHT22;38228;50.940;4.024;2023-03-23T08:47:41;12.60;99.90
52275;DHT22;38228;50.940;4.024;2023-03-23T08:50:13;12.70;99.90
52275;DHT22;38228;50.940;4.024;2023-03-23T08:52:39;12.70;99.90
52275;DHT22;38228;50.940;4.024;2023-03-23T08:55:05;13.00;99.90
52275;DHT22;38228;50.940;4.024;2023-03-23T08:57:34;13.00;99.90
52275;DHT22;38228;50.940;4.024;2023-03-23T09:00:00;12.90;99.90
52275;DHT22;38228;50.940;4.024;2023-03-23T09:02:38;12.80;99.90
52275;DHT22;38228;50.940;4.024;2023-03-23T09:05:04;12.90;99.90
52275;DHT22;38228;50.940;4.024;2023-03-23T09:07:29;12.80;99.90
52275;DHT22;38228;50.940;4.024;2023-03-23T09:09:55;12.70;99.90
52275;DHT22;38228;50.940;4.024;2023-03-23T09:12:21;12.80;99.90
52275;DHT22;38228;50.940;4.024;2023-03-23T09:14:46;13.00;99.90
52275;DHT22;38228;50.940;4.024;2023-03-23T09:17:12;13.20;99.90
52275;DHT22;38228;50.940;4.024;2023-03-23T09:19:38;13.20;99.90
52275;DHT22;38228;50.940;4.024;2023-03-23T09:22:03;13.20;99.90
52275;DHT22;38228;50.940;4.024;2023-03-23T09:24:29;13.20;99.90
52275;DHT22;38228;50.940;4.024;2023-03-23T09:26:57;13.40;99.90
52275;DHT22;38228;50.940;4.024;2023-03-23T09:29:24;13.50;99.90
52275;DHT22;38228;50.940;4.024;2023-03-23T09:31:50;13.60;99.90
52275;DHT22;38228;50.940;4.024;2023-03-23T09:34:16;13.60;99.90
52275;DHT22;38228;50.940;4.024;2023-03-23T09:36:45;13.40;99.90
52275;DHT22;38228;50.940;4.024;2023-03-23T09:39:11;13.50;99.90
52275;DHT22;38228;50.940;4.024;2023-03-23T09:49:26;13.70;99.90
52275;DHT22;38228;50.940;4.024;2023-03-23T09:56:46;13.70;99.90
52275;DHT22;38228;50.940;4.024;2023-03-23T09:59:19;13.80;99.90
52275;DHT22;38228;50.940;4.024;2023-03-23T10:01:49;13.90;99.90
52275;DHT22;38228;50.940;4.024;2023-03-23T10:04:19;14.00;99.90
52275;DHT22;38228;50.940;4.024;2023-03-23T10:06:47;14.20;99.90
52275;DHT22;38228;50.940;4.024;2023-03-23T10:09:14;14.10;99.90
52275;DHT22;38228;50.940;4.024;2023-03-23T10:11:54;14.50;99.90
52275;DHT22;38228;50.940;4.024;2023-03-23T10:19:55;14.90;99.90
52275;DHT22;38228;50.940;4.024;2023-03-23T10:22:32;14.90;99.90
52275;DHT22;38228;50.940;4.024;2023-03-23T10:25:03;14.90;99.90
52275;DHT22;38228;50.940;4.024;2023-03-23T10:27:36;15.00;99.90
52275;DHT22;38228;50.940;4.024;2023-03-23T10:35:10;14.90;99.90
52275;DHT22;38228;50.940;4.024;2023-03-23T10:37:38;15.20;99.90
52275;DHT22;38228;50.940;4.024;2023-03-23T10:40:06;15.30;99.90
52275;DHT22;38228;50.940;4.024;2023-03-23T10:42:36;15.20;99.90
52275;DHT22;38228;50.940;4.024;2023-03-23T10:45:17;15.40;99.90
52275;DHT22;38228;50.940;4.024;2023-03-23T10:47:52;15.40;99.90
52275;DHT22;38228;50.940;4.024;2023-03-23T10:50:26;15.50;99.90
52275;DHT22;38228;50.940;4.024;2023-03-23T10:52:53;15.50;99.90
52275;DHT22;38228;50.940;4.024;2023-03-23T10:55:21;15.40;99.90
52275;DHT22;38228;50.940;4.024;2023-03-23T10:58:09;15.30;99.90
52275;DHT22;38228;50.940;4.024;2023-03-23T11:00:40;14.60;99.90
52275;DHT22;38228;50.940;4.024;2023-03-23T11:05:42;14.50;99.90
52275;DHT22;38228;50.940;4.024;2023-03-23T11:08:12;14.40;99.90
52275;DHT22;38228;50.940;4.024;2023-03-23T11:10:48;14.50;99.90
52275;DHT22;38228;50.940;4.024;2023-03-23T11:13:18;14.50;99.90
52275;DHT22;38228;50.940;4.024;2023-03-23T11:15:45;14.60;99.90
52275;DHT22;38228;50.940;4.024;2023-03-23T11:18:12;14.60;99.90
52275;DHT22;38228;50.940;4.024;2023-03-23T11:20:43;14.30;99.90
52275;DHT22;38228;50.940;4.024;2023-03-23T11:23:22;14.30;99.90
52275;DHT22;38228;50.940;4.024;2023-03-23T11:28:25;14.20;99.90
52275;DHT22;38228;50.940;4.024;2023-03-23T11:30:53;14.40;99.90
52275;DHT22;38228;50.940;4.024;2023-03-23T11:33:19;14.30;99.90
52275;DHT22;38228;50.940;4.024;2023-03-23T11:35:44;14.30;99.90
52275;DHT22;38228;50.940;4.024;2023-03-23T11:38:16;14.30;99.90
52275;DHT22;38228;50.940;4.024;2023-03-23T11:40:49;14.50;99.90
52275;DHT22;38228;50.940;4.024;2023-03-23T11:43:18;14.50;99.90
52275;DHT22;38228;50.940;4.024;2023-03-23T11:45:58;14.50;99.90
52275;DHT22;38228;50.940;4.024;2023-03-23T11:48:38;14.50;99.90
52275;DHT22;38228;50.940;4.024;2023-03-23T11:56:24;15.50;99.90
52275;DHT22;38228;50.940;4.024;2023-03-23T11:58:51;15.70;99.90
52275;DHT22;38228;50.940;4.024;2023-03-23T12:01:31;16.00;99.90
52275;DHT22;38228;50.940;4.024;2023-03-23T12:09:24;16.20;99.90
52275;DHT22;38228;50.940;4.024;2023-03-23T12:20:13;16.30;99.90
52275;DHT22;38228;50.940;4.024;2023-03-23T12:33:37;16.60;99.90
52275;DHT22;38228;50.940;4.024;2023-03-23T12:39:14;16.50;99.90
52275;DHT22;38228;50.940;4.024;2023-03-23T12:41:47;16.80;99.90
52275;DHT22;38228;50.940;4.024;2023-03-23T12:44:14;17.00;99.90
52275;DHT22;38228;50.940;4.024;2023-03-23T12:49:21;17.30;99.90
52275;DHT22;38228;50.940;4.024;2023-03-23T12:51:54;17.40;99.90
52275;DHT22;38228;50.940;4.024;2023-03-23T12:54:23;17.60;99.90
52275;DHT22;38228;50.940;4.024;2023-03-23T12:56:59;17.40;99.90
52275;DHT22;38228;50.940;4.024;2023-03-23T12:59:41;17.30;99.90
52275;DHT22;38228;50.940;4.024;2023-03-23T13:04:50;17.20;99.90
52275;DHT22;38228;50.940;4.024;2023-03-23T13:07:22;16.90;99.90
52275;DHT22;38228;50.940;4.024;2023-03-23T13:12:22;16.10;99.90
52275;DHT22;38228;50.940;4.024;2023-03-23T13:22:42;16.60;99.90
52275;DHT22;38228;50.940;4.024;2023-03-23T13:25:23;16.80;99.90
52275;DHT22;38228;50.940;4.024;2023-03-23T13:27:55;16.90;99.90
52275;DHT22;38228;50.940;4.024;2023-03-23T13:30:21;16.90;99.90
52275;DHT22;38228;50.940;4.024;2023-03-23T13:32:50;16.80;99.90
52275;DHT22;38228;50.940;4.024;2023-03-23T13:35:17;16.80;99.90
52275;DHT22;38228;50.940;4.024;2023-03-23T13:37:46;16.70;99.90
52275;DHT22;38228;50.940;4.024;2023-03-23T13:40:21;16.80;99.90
52275;DHT22;38228;50.940;4.024;2023-03-23T13:42:59;16.90;99.90
52275;DHT22;38228;50.940;4.024;2023-03-23T13:50:30;16.60;99.90
52275;DHT22;38228;50.940;4.024;2023-03-23T13:53:11;16.60;99.90
52275;DHT22;38228;50.940;4.024;2023-03-23T13:56:21;16.70;99.90
52275;DHT22;38228;50.940;4.024;2023-03-23T13:58:26;16.70;99.90
52275;DHT22;38228;50.940;4.024;2023-03-23T14:03:38;17.20;99.90
52275;DHT22;38228;50.940;4.024;2023-03-23T14:06:11;17.10;99.90
52275;DHT22;38228;50.940;4.024;2023-03-23T14:08:44;17.10;99.90
52275;DHT22;38228;50.940;4.024;2023-03-23T14:16:16;18.00;99.90
52275;DHT22;38228;50.940;4.024;2023-03-23T14:18:46;17.80;99.90
52275;DHT22;38228;50.940;4.024;2023-03-23T14:21:14;17.90;99.90
52275;DHT22;38228;50.940;4.024;2023-03-23T14:23:39;17.90;99.90
52275;DHT22;38228;50.940;4.024;2023-03-23T14:26:09;17.70;99.90
52275;DHT22;38228;50.940;4.024;2023-03-23T14:28:37;17.90;99.90
52275;DHT22;38228;50.940;4.024;2023-03-23T14:31:03;18.20;99.90
52275;DHT22;38228;50.940;4.024;2023-03-23T14:33:29;18.20;99.90
52275;DHT22;38228;50.940;4.024;2023-03-23T14:35:56;18.20;99.90
52275;DHT22;38228;50.940;4.024;2023-03-23T14:38:23;18.00;99.90
52275;DHT22;38228;50.940;4.024;2023-03-23T14:40:53;17.40;99.90
52275;DHT22;38228;50.940;4.024;2023-03-23T14:43:19;17.00;99.90
52275;DHT22;38228;50.940;4.024;2023-03-23T14:45:51;16.30;99.90
52275;DHT22;38228;50.940;4.024;2023-03-23T14:48:16;16.10;99.90
52275;DHT22;38228;50.940;4.024;2023-03-23T14:50:48;16.10;99.90
52275;DHT22;38228;50.940;4.024;2023-03-23T14:55:43;16.50;99.90
52275;DHT22;38228;50.940;4.024;2023-03-23T14:58:13;17.10;99.90
52275;DHT22;38228;50.940;4.024;2023-03-23T15:00:40;17.80;99.90
52275;DHT22;38228;50.940;4.024;2023-03-23T15:03:10;18.40;99.90
52275;DHT22;38228;50.940;4.024;2023-03-23T15:05:37;18.70;99.90
52275;DHT22;38228;50.940;4.024;2023-03-23T15:08:06;18.10;99.90
52275;DHT22;38228;50.940;4.024;2023-03-23T15:10:33;18.10;99.90
52275;DHT22;38228;50.940;4.024;2023-03-23T15:12:59;17.90;99.90
52275;DHT22;38228;50.940;4.024;2023-03-23T15:15:28;17.30;99.90
52275;DHT22;38228;50.940;4.024;2023-03-23T15:17:55;17.10;99.90
52275;DHT22;38228;50.940;4.024;2023-03-23T15:20:24;17.20;99.90
52275;DHT22;38228;50.940;4.024;2023-03-23T15:22:50;17.30;99.90
52275;DHT22;38228;50.940;4.024;2023-03-23T15:27:51;17.50;99.90
52275;DHT22;38228;50.940;4.024;2023-03-23T15:32:59;17.50;99.90
52275;DHT22;38228;50.940;4.024;2023-03-23T15:35:25;17.30;99.90
52275;DHT22;38228;50.940;4.024;2023-03-23T15:37:52;17.40;99.90
52275;DHT22;38228;50.940;4.024;2023-03-23T15:40:23;17.20;99.90
52275;DHT22;38228;50.940;4.024;2023-03-23T15:42:49;17.20;99.90
52275;DHT22;38228;50.940;4.024;2023-03-23T15:45:24;17.00;99.90
52275;DHT22;38228;50.940;4.024;2023-03-23T15:47:50;16.90;99.90
52275;DHT22;38228;50.940;4.024;2023-03-23T15:50:17;16.40;99.90
52275;DHT22;38228;50.940;4.024;2023-03-23T15:52:43;16.00;99.90
52275;DHT22;38228;50.940;4.024;2023-03-23T15:55:19;15.80;99.90
52275;DHT22;38228;50.940;4.024;2023-03-23T15:57:45;15.60;99.90
52275;DHT22;38228;50.940;4.024;2023-03-23T16:00:11;15.60;99.90
52275;DHT22;38228;50.940;4.024;2023-03-23T16:02:36;15.60;99.90
52275;DHT22;38228;50.940;4.024;2023-03-23T16:05:02;15.70;99.90
52275;DHT22;38228;50.940;4.024;2023-03-23T16:07:28;15.90;99.90
52275;DHT22;38228;50.940;4.024;2023-03-23T16:09:53;16.20;99.90
52275;DHT22;38228;50.940;4.024;2023-03-23T16:12:19;16.20;99.90
52275;DHT22;38228;50.940;4.024;2023-03-23T16:14:44;16.30;99.90
52275;DHT22;38228;50.940;4.024;2023-03-23T16:17:11;16.30;99.90
52275;DHT22;38228;50.940;4.024;2023-03-23T16:19:38;16.30;99.90
52275;DHT22;38228;50.940;4.024;2023-03-23T16:22:03;16.50;99.90
52275;DHT22;38228;50.940;4.024;2023-03-23T16:24:29;16.30;99.90
52275;DHT22;38228;50.940;4.024;2023-03-23T16:26:55;16.20;99.90
52275;DHT22;38228;50.940;4.024;2023-03-23T16:29:20;16.10;99.90
52275;DHT22;38228;50.940;4.024;2023-03-23T16:31:46;16.00;99.90
52275;DHT22;38228;50.940;4.024;2023-03-23T16:34:11;15.80;99.90
52275;DHT22;38228;50.940;4.024;2023-03-23T16:36:37;15.90;99.90
52275;DHT22;38228;50.940;4.024;2023-03-23T16:39:03;16.10;99.90
52275;DHT22;38228;50.940;4.024;2023-03-23T16:41:28;16.10;99.90
52275;DHT22;38228;50.940;4.024;2023-03-23T16:43:54;16.00;99.90
52275;DHT22;38228;50.940;4.024;2023-03-23T16:46:19;16.00;99.90
52275;DHT22;38228;50.940;4.024;2023-03-23T16:48:45;15.90;99.90
52275;DHT22;38228;50.940;4.024;2023-03-23T16:51:10;15.80;99.90
52275;DHT22;38228;50.940;4.024;2023-03-23T16:53:36;15.80;99.90
52275;DHT22;38228;50.940;4.024;2023-03-23T16:56:02;15.60;99.90
52275;DHT22;38228;50.940;4.024;2023-03-23T16:58:28;15.40;99.90
52275;DHT22;38228;50.940;4.024;2023-03-23T17:00:53;15.60;99.90
52275;DHT22;38228;50.940;4.024;2023-03-23T17:03:19;15.70;99.90
52275;DHT22;38228;50.940;4.024;2023-03-23T17:05:46;15.70;99.90
52275;DHT22;38228;50.940;4.024;2023-03-23T17:08:12;15.70;99.90
52275;DHT22;38228;50.940;4.024;2023-03-23T17:10:38;15.80;99.90
52275;DHT22;38228;50.940;4.024;2023-03-23T17:13:04;15.90;99.90
52275;DHT22;38228;50.940;4.024;2023-03-23T17:15:29;15.70;99.90
52275;DHT22;38228;50.940;4.024;2023-03-23T17:17:55;15.70;99.90
52275;DHT22;38228;50.940;4.024;2023-03-23T17:20:21;15.70;99.90
52275;DHT22;38228;50.940;4.024;2023-03-23T17:22:47;15.70;99.90
52275;DHT22;38228;50.940;4.024;2023-03-23T17:25:13;15.70;99.90
52275;DHT22;38228;50.940;4.024;2023-03-23T17:27:38;15.50;99.90
52275;DHT22;38228;50.940;4.024;2023-03-23T17:30:05;15.50;99.90